Alamosa, CO

9:18 PM MDT on August 31, 2015 (GMT -0600)
San Luis Valley Regional / Bergman Field | | Change Station
CLOSE
Current Station
Airport
Location: Alamosa,
Elevation: 7543 ft
Nearby Weather Stations

Elev 7543 ft 37.44 °N, 105.86 °W | Updated 26 minutes ago

Rain
Rain
59 °F
Feels Like 59 °F
N
8
Wind Variable Wind from ENE

Today
High -- | Low -- °F
--% Chance of Precip.
Yesterday
High -- | Low -- °F
Precip. -- in
6:32 AM 7:34 PM
Waning Gibbous, 92% visible
Pressure 30.04 in
Visibility 9.0 miles
Clouds Scattered Clouds 6000 ft
Overcast 7000 ft
Dew Point 51 °F
Humidity 75%
Rainfall 0.04 in
Snow Depth Not available.
UV 0 out of 12
Pollen 10.80 out of 12
Air Quality Not available.
Flu Activity Not available.
METAR KALS 010252Z AUTO 07007KT 9SM -RA SCT060 OVC070 15/11 A3028 RMK AO2 SLP172 P0004 60004 T01500106 50008
Pressure 30.04 in
Visibility 9.0 miles
Clouds Scattered Clouds 6000 ft
Overcast 7000 ft
Dew Point 51 °F
Humidity 75%
Rainfall 0.04 in
Snow Depth Not available.
UV 0 out of 12
Pollen 10.80 out of 12
Air Quality Not available.
Flu Activity Not available.
METAR KALS 010252Z AUTO 07007KT 9SM -RA SCT060 OVC070 15/11 A3028 RMK AO2 SLP172 P0004 60004 T01500106 50008

10-Day Weather Forecast

×

Almanac

Astronomy

Aug. 31, 2015 Rise Set
Actual Time
Civil Twilight
Nautical Twilight
Astronomical Twilight
Moon
Length of Visible Light
Length of Day
Tomorrow will be .
, % of the Moon is Illuminated

Today's Extremes

State Highs State Lows

Community

WunderPhotos

Upload Photos

1,851,471 photos uploaded!

WunderBlogs® & News

Nearby

Air Quality

  Air Quality AQ Index Pollutant
Not available.

Snow Depth

Station Depth Elevation

Earthquake Activity

City Distance Mag. Time & Date
Minimum magnitude displayed is 2.5.

Coastal Water Temperatures

Place Temperature

Stations

Nearby Weather Stations

Station Location Temp. Windchill Dew Point Humidity Wind Precip. Elev Updated Type